Time;durP1;ratioP1;P1;durP2;ratioP2;P2;SDS_P1;SDS_P2;PMS_P1;PMS_P2;Temp;Humidity;BMP_temperature;BMP_pressure;BME280_temperature;BME280_humidity;BME280_pressure;Samples;Min_cycle;Max_cycle;Signal;HPM_P1;HPM_P2
2021/09/21 00:00:23;;;;;;;12.80;6.88;;;;;;;9.06;100.00;102640.72;5209163;28;20021;-71
2021/09/21 00:02:54;;;;;;;14.73;6.53;;;;;;;9.00;100.00;102638.50;5214223;28;20029;-71
2021/09/21 00:05:24;;;;;;;15.55;7.13;;;;;;;8.92;100.00;102638.19;5202146;28;20048;-71
2021/09/21 00:07:55;;;;;;;12.30;6.60;;;;;;;8.91;100.00;102653.41;5213624;28;20040;-71
2021/09/21 00:10:25;;;;;;;9.15;5.85;;;;;;;8.96;100.00;102659.28;5214968;28;20103;-71
2021/09/21 00:12:56;;;;;;;11.80;6.32;;;;;;;9.01;100.00;102658.94;5210502;28;20052;-72
2021/09/21 00:15:26;;;;;;;12.05;6.30;;;;;;;9.15;100.00;102661.47;5204844;28;20044;-71
2021/09/21 00:17:57;;;;;;;12.93;7.03;;;;;;;9.17;100.00;102658.66;5200992;28;20116;-71
2021/09/21 00:20:27;;;;;;;11.10;6.45;;;;;;;9.17;100.00;102659.53;5214235;28;20033;-71
2021/09/21 00:22:58;;;;;;;13.43;6.25;;;;;;;9.15;100.00;102671.34;5200777;28;20091;-71
2021/09/21 00:25:28;;;;;;;14.85;6.40;;;;;;;9.22;100.00;102669.91;5206759;28;20037;-71
2021/09/21 00:27:59;;;;;;;10.40;5.75;;;;;;;9.18;100.00;102679.97;5208101;28;20035;-71
2021/09/21 00:30:30;;;;;;;12.73;6.53;;;;;;;9.15;100.00;102680.22;5213014;28;20033;-71
2021/09/21 00:33:02;;;;;;;13.27;6.93;;;;;;;9.06;100.00;102684.41;5213381;28;20013;-71
2021/09/21 00:35:34;;;;;;;16.30;6.90;;;;;;;9.02;100.00;102680.25;5210129;28;20035;-71
2021/09/21 00:38:05;;;;;;;13.48;6.88;;;;;;;8.93;100.00;102677.38;5221107;28;20122;-70
2021/09/21 00:40:35;;;;;;;13.90;6.63;;;;;;;8.82;100.00;102688.84;5211350;28;20029;-71
2021/09/21 00:43:06;;;;;;;15.75;7.68;;;;;;;8.73;100.00;102687.69;5207133;28;20025;-71
2021/09/21 00:45:38;;;;;;;15.40;7.65;;;;;;;8.65;100.00;102678.50;5221014;28;20765;-71
2021/09/21 00:48:08;;;;;;;14.82;8.20;;;;;;;8.57;100.00;102681.72;5207673;28;20368;-71
2021/09/21 00:50:38;;;;;;;10.95;7.07;;;;;;;8.51;100.00;102682.16;5207460;28;20083;-71
2021/09/21 00:53:09;;;;;;;16.00;8.52;;;;;;;8.45;100.00;102677.25;5207330;28;20031;-71
2021/09/21 00:55:40;;;;;;;16.63;8.20;;;;;;;8.39;100.00;102680.34;5219351;28;20021;-71
2021/09/21 00:58:10;;;;;;;14.43;8.02;;;;;;;8.32;100.00;102679.88;5209275;28;20394;-71
2021/09/21 01:00:41;;;;;;;17.38;8.25;;;;;;;8.28;100.00;102681.06;5207599;28;20024;-71
2021/09/21 01:03:11;;;;;;;11.40;7.53;;;;;;;8.27;100.00;102671.31;5210197;28;20087;-71
2021/09/21 01:05:42;;;;;;;12.65;6.82;;;;;;;8.34;100.00;102672.63;5213921;28;20025;-71
2021/09/21 01:08:13;;;;;;;17.42;8.57;;;;;;;8.32;100.00;102682.56;5211579;28;20055;-71
2021/09/21 01:10:44;;;;;;;11.82;6.60;;;;;;;8.35;100.00;102687.69;5207255;28;20443;-70
2021/09/21 01:13:14;;;;;;;12.88;7.03;;;;;;;8.36;100.00;102692.13;5221009;28;20063;-71
2021/09/21 01:16:02;;;;;;;13.52;7.28;;;;;;;8.36;100.00;102685.88;5205787;28;20486;-71
2021/09/21 01:18:49;;;;;;;14.38;7.40;;;;;;;8.35;100.00;102693.03;5220615;28;20017;-72
2021/09/21 01:21:24;;;;;;;15.40;7.95;;;;;;;8.42;100.00;102698.84;5203656;28;20075;-71
2021/09/21 01:24:10;;;;;;;12.60;6.78;;;;;;;8.42;100.00;102686.31;5200048;28;20430;-71
2021/09/21 01:26:41;;;;;;;15.85;7.28;;;;;;;8.47;100.00;102684.19;5202816;28;20751;-71
2021/09/21 01:29:11;;;;;;;13.88;7.45;;;;;;;8.47;100.00;102689.53;5220025;28;20064;-71
2021/09/21 01:31:42;;;;;;;14.00;7.57;;;;;;;8.48;100.00;102693.94;5216540;28;20112;-71
2021/09/21 01:34:18;;;;;;;13.90;6.85;;;;;;;8.53;100.00;102694.47;5211603;28;20470;-71
2021/09/21 01:36:48;;;;;;;11.38;6.75;;;;;;;8.48;100.00;102696.63;5220042;28;20029;-71
2021/09/21 01:39:19;;;;;;;13.48;7.38;;;;;;;8.42;100.00;102699.69;5205881;28;20029;-71
2021/09/21 01:41:50;;;;;;;15.18;8.52;;;;;;;8.38;100.00;102700.03;5203551;28;20108;-72
2021/09/21 01:44:22;;;;;;;13.20;7.82;;;;;;;8.34;100.00;102707.38;5212982;28;20029;-72
2021/09/21 01:46:52;;;;;;;13.63;7.60;;;;;;;8.32;100.00;102698.59;5200098;28;20034;-71
2021/09/21 01:49:24;;;;;;;13.38;7.85;;;;;;;8.30;100.00;102703.22;5212758;28;20032;-72
2021/09/21 01:52:06;;;;;;;19.23;8.60;;;;;;;8.30;100.00;102709.41;5199628;28;20053;-71
2021/09/21 01:59:57;;;;;;;15.05;8.05;;;;;;;8.26;100.00;102705.22;5199428;28;20032;-72
2021/09/21 02:02:27;;;;;;;15.82;8.63;;;;;;;8.22;100.00;102702.88;5212729;28;20033;-71
2021/09/21 02:04:58;;;;;;;17.52;8.80;;;;;;;8.17;100.00;102700.50;5199384;28;20040;-71
2021/09/21 02:07:35;;;;;;;13.13;7.47;;;;;;;8.14;100.00;102699.88;5218480;28;20064;-72
2021/09/21 02:10:10;;;;;;;17.90;8.65;;;;;;;8.13;100.00;102695.47;5205704;28;20044;-72
2021/09/21 02:12:41;;;;;;;12.23;8.25;;;;;;;8.12;100.00;102697.28;5211939;28;20026;-71
2021/09/21 02:15:22;;;;;;;12.73;7.50;;;;;;;8.13;100.00;102692.81;5215355;28;20390;-72
2021/09/21 02:17:56;;;;;;;12.90;7.87;;;;;;;8.12;100.00;102689.28;5209131;28;20022;-71
2021/09/21 02:20:27;;;;;;;18.27;7.22;;;;;;;8.16;100.00;102689.94;5211537;28;20287;-72
2021/09/21 02:22:58;;;;;;;13.75;8.38;;;;;;;8.13;100.00;102685.63;5211881;28;20474;-71
2021/09/21 02:25:28;;;;;;;16.77;8.95;;;;;;;8.05;100.00;102683.50;5199749;28;20290;-71
2021/09/21 02:27:59;;;;;;;14.15;7.88;;;;;;;7.97;100.00;102683.16;5212545;28;20060;-71
2021/09/21 02:30:30;;;;;;;20.73;8.55;;;;;;;7.93;100.00;102686.16;5219488;28;20112;-71
2021/09/21 02:33:00;;;;;;;23.25;9.80;;;;;;;7.90;100.00;102684.56;5217282;28;20060;-71
2021/09/21 02:35:31;;;;;;;19.92;9.63;;;;;;;7.90;100.00;102684.56;5204360;28;20364;-71
2021/09/21 02:38:01;;;;;;;22.17;9.77;;;;;;;7.91;100.00;102680.91;5205230;28;20549;-71
2021/09/21 02:40:32;;;;;;;16.55;9.32;;;;;;;7.94;100.00;102688.75;5219281;28;20025;-71
2021/09/21 02:43:02;;;;;;;15.52;8.75;;;;;;;8.01;100.00;102692.69;5205864;28;20052;-71
2021/09/21 02:45:33;;;;;;;18.38;9.40;;;;;;;8.10;100.00;102703.72;5219165;28;20037;-71
2021/09/21 02:48:04;;;;;;;15.13;8.60;;;;;;;8.15;100.00;102696.25;5200347;28;20166;-72
2021/09/21 02:50:35;;;;;;;17.00;8.65;;;;;;;8.20;100.00;102702.13;5197314;28;20028;-72
2021/09/21 02:53:06;;;;;;;13.32;8.75;;;;;;;8.23;100.00;102701.91;5204849;28;20083;-72
2021/09/21 02:55:36;;;;;;;17.70;10.30;;;;;;;8.28;100.00;102702.44;5218465;28;20029;-72
2021/09/21 02:58:07;;;;;;;17.38;9.73;;;;;;;8.30;100.00;102700.53;5206762;28;20256;-72
2021/09/21 03:00:37;;;;;;;22.55;9.27;;;;;;;8.29;100.00;102705.03;5219310;28;20036;-72
2021/09/21 03:03:08;;;;;;;19.02;8.80;;;;;;;8.30;100.00;102701.38;5210578;28;20025;-72
2021/09/21 03:05:43;;;;;;;17.25;8.80;;;;;;;8.29;100.00;102697.00;5211820;28;20351;-72
2021/09/21 03:08:16;;;;;;;17.30;9.02;;;;;;;8.34;100.00;102704.72;5209699;28;20068;-72
2021/09/21 03:10:57;;;;;;;13.50;8.75;;;;;;;8.30;100.00;102708.56;5200514;28;20486;-71
2021/09/21 03:18:57;;;;;;;16.65;9.25;;;;;;;8.22;100.00;102722.44;5212636;28;20049;-71
2021/09/21 03:21:28;;;;;;;18.48;10.43;;;;;;;8.19;100.00;102721.81;5198406;28;20100;-72
2021/09/21 03:23:58;;;;;;;19.63;10.35;;;;;;;8.16;100.00;102727.38;5207378;28;20025;-72
2021/09/21 03:26:29;;;;;;;19.33;9.75;;;;;;;8.13;100.00;102731.09;5222633;28;20482;-72
2021/09/21 03:28:59;;;;;;;21.77;9.32;;;;;;;8.11;100.00;102740.19;5222283;28;20028;-73
2021/09/21 03:31:30;;;;;;;18.20;10.00;;;;;;;8.08;100.00;102735.88;5220383;28;20025;-73
2021/09/21 03:34:00;;;;;;;16.25;9.50;;;;;;;8.08;100.00;102737.72;5212302;28;20119;-70
2021/09/21 03:36:31;;;;;;;18.35;8.88;;;;;;;8.06;100.00;102740.50;5191258;28;20043;-71
2021/09/21 03:39:02;;;;;;;17.20;9.63;;;;;;;8.05;100.00;102747.66;5222411;28;20398;-71
2021/09/21 03:41:33;;;;;;;23.92;10.40;;;;;;;8.05;100.00;102749.47;5207168;28;20116;-71
2021/09/21 03:44:03;;;;;;;20.85;10.88;;;;;;;8.02;100.00;102750.53;5215091;28;20079;-72
2021/09/21 03:46:34;;;;;;;21.50;9.95;;;;;;;8.00;100.00;102741.78;5184754;28;20037;-73
2021/09/21 03:49:04;;;;;;;18.60;10.73;;;;;;;7.96;100.00;102745.59;5201919;28;20112;-72
2021/09/21 03:51:35;;;;;;;22.38;10.98;;;;;;;7.92;100.00;102748.59;5214814;28;20025;-71
2021/09/21 03:54:09;;;;;;;19.42;10.45;;;;;;;7.86;100.00;102739.16;5203489;28;20127;-71
2021/09/21 03:56:40;;;;;;;20.88;9.80;;;;;;;7.79;100.00;102744.06;5213184;28;20033;-70
2021/09/21 03:59:10;;;;;;;16.55;10.07;;;;;;;7.85;100.00;102757.97;5201730;28;20092;-72
2021/09/21 04:01:41;;;;;;;20.45;10.35;;;;;;;7.88;100.00;102755.97;5211935;28;20127;-71
2021/09/21 04:04:11;;;;;;;18.75;9.35;;;;;;;7.87;100.00;102767.59;5204122;28;20482;-71
2021/09/21 04:06:42;;;;;;;20.55;9.73;;;;;;;7.79;100.00;102777.94;5212816;28;20025;-71
2021/09/21 04:09:12;;;;;;;18.58;10.75;;;;;;;7.68;100.00;102786.69;5215999;28;20044;-71
2021/09/21 04:11:43;;;;;;;19.55;10.23;;;;;;;7.58;100.00;102785.56;5214347;28;20123;-70
2021/09/21 04:14:14;;;;;;;17.10;10.20;;;;;;;7.51;100.00;102789.56;5215170;28;20029;-71
2021/09/21 04:16:44;;;;;;;20.85;11.20;;;;;;;7.43;100.00;102789.19;5214455;28;20074;-71
2021/09/21 04:19:15;;;;;;;20.88;11.00;;;;;;;7.37;100.00;102793.13;5208640;28;20478;-71
2021/09/21 04:21:45;;;;;;;23.25;12.05;;;;;;;7.33;100.00;102791.63;5208312;28;20026;-71
2021/09/21 04:24:16;;;;;;;18.10;10.70;;;;;;;7.31;100.00;102796.19;5212683;28;20387;-72
2021/09/21 04:26:46;;;;;;;22.50;11.73;;;;;;;7.30;100.00;102797.16;5214390;28;20044;-72
2021/09/21 04:29:17;;;;;;;26.10;11.18;;;;;;;7.29;100.00;102794.59;5212091;28;20078;-71
2021/09/21 04:31:50;;;;;;;23.90;12.25;;;;;;;7.26;100.00;102795.63;5207570;28;20079;-73
2021/09/21 04:34:20;;;;;;;24.58;11.38;;;;;;;7.23;100.00;102782.47;5208682;28;20124;-72
2021/09/21 04:36:51;;;;;;;20.65;11.50;;;;;;;7.19;100.00;102788.97;5214118;28;20474;-72
2021/09/21 04:39:22;;;;;;;15.93;9.60;;;;;;;7.16;100.00;102797.16;5214283;28;20108;-72
2021/09/21 04:41:53;;;;;;;23.80;10.77;;;;;;;7.14;100.00;102793.72;5205296;28;20045;-73
2021/09/21 04:44:23;;;;;;;23.02;11.00;;;;;;;7.10;100.00;102794.88;5215431;28;20037;-72
2021/09/21 04:46:54;;;;;;;25.88;10.70;;;;;;;7.04;100.00;102795.25;5212707;28;20448;-71
2021/09/21 04:49:24;;;;;;;22.42;11.35;;;;;;;6.98;100.00;102800.03;5200739;28;20390;-72
2021/09/21 04:51:55;;;;;;;22.02;12.23;;;;;;;6.97;100.00;102806.28;5210495;28;20027;-72
2021/09/21 04:54:25;;;;;;;18.33;10.32;;;;;;;7.00;100.00;102811.47;5220965;28;20099;-72
2021/09/21 04:56:56;;;;;;;20.85;10.25;;;;;;;7.04;100.00;102813.94;5221014;28;20033;-72
2021/09/21 04:59:27;;;;;;;22.70;11.27;;;;;;;6.98;100.00;102821.38;5215933;28;20108;-72
2021/09/21 05:01:57;;;;;;;22.27;11.40;;;;;;;6.93;100.00;102822.63;5212012;28;20017;-72
2021/09/21 05:04:27;;;;;;;22.45;11.02;;;;;;;6.86;100.00;102806.09;5220873;28;20397;-72
2021/09/21 05:06:58;;;;;;;25.98;11.55;;;;;;;6.81;100.00;102810.00;5220830;28;20032;-72
2021/09/21 05:09:28;;;;;;;27.15;11.98;;;;;;;6.77;100.00;102804.00;5220972;28;20029;-71
2021/09/21 05:11:59;;;;;;;22.60;11.43;;;;;;;6.74;100.00;102796.22;5207181;28;20029;-70
2021/09/21 05:14:29;;;;;;;23.40;11.82;;;;;;;6.69;100.00;102814.28;5212496;28;20094;-71
2021/09/21 05:17:00;;;;;;;20.52;11.23;;;;;;;6.76;100.00;102834.31;5213178;28;20028;-71
2021/09/21 05:19:31;;;;;;;25.65;11.13;;;;;;;6.83;100.00;102846.34;5209133;28;20032;-70
2021/09/21 05:22:01;;;;;;;21.88;11.45;;;;;;;6.81;100.00;102826.88;5220210;28;20107;-71
2021/09/21 05:24:32;;;;;;;25.77;11.57;;;;;;;6.77;100.00;102822.69;5209757;28;20033;-71
2021/09/21 05:27:03;;;;;;;20.98;11.85;;;;;;;6.74;100.00;102833.56;5204409;28;20367;-72
2021/09/21 05:29:33;;;;;;;25.98;11.35;;;;;;;6.83;100.00;102838.34;5189556;28;20135;-72
2021/09/21 05:32:04;;;;;;;19.58;11.18;;;;;;;6.90;100.00;102839.66;5199252;28;20079;-72
2021/09/21 05:34:34;;;;;;;22.90;11.13;;;;;;;6.89;100.00;102847.78;5212941;28;20071;-70
2021/09/21 05:37:05;;;;;;;23.52;10.88;;;;;;;6.93;100.00;102851.97;5208277;28;20106;-70
2021/09/21 05:39:35;;;;;;;20.33;11.73;;;;;;;7.04;100.00;102845.97;5204258;28;20025;-69
2021/09/21 05:42:06;;;;;;;19.92;10.55;;;;;;;7.03;100.00;102839.78;5203773;28;20017;-69
2021/09/21 05:44:36;;;;;;;23.42;11.98;;;;;;;7.01;100.00;102858.53;5212544;28;20025;-70
2021/09/21 05:47:07;;;;;;;23.85;12.40;;;;;;;7.01;100.00;102860.34;5209647;28;20032;-69
2021/09/21 05:49:39;;;;;;;23.48;11.77;;;;;;;7.01;100.00;102866.53;5206777;28;20036;-69
2021/09/21 05:52:09;;;;;;;23.10;11.45;;;;;;;7.03;100.00;102863.81;5219990;28;20132;-69
2021/09/21 05:54:40;;;;;;;20.30;11.25;;;;;;;7.09;100.00;102867.91;5220163;28;20108;-69
2021/09/21 05:57:10;;;;;;;24.33;11.77;;;;;;;7.11;100.00;102872.19;5206033;28;20029;-69
2021/09/21 05:59:42;;;;;;;22.85;11.15;;;;;;;7.17;100.00;102887.81;5213572;28;20371;-69
2021/09/21 06:02:13;;;;;;;22.90;11.50;;;;;;;7.24;100.00;102881.16;5215358;28;20106;-70
2021/09/21 06:04:43;;;;;;;24.67;10.30;;;;;;;7.37;100.00;102888.38;5218494;28;20498;-70
2021/09/21 06:07:14;;;;;;;20.48;10.75;;;;;;;7.61;100.00;102886.84;5218089;28;20021;-69
2021/09/21 06:09:45;;;;;;;23.17;11.02;;;;;;;7.71;100.00;102889.78;5200287;28;20116;-69
2021/09/21 06:12:15;;;;;;;20.35;10.60;;;;;;;7.75;100.00;102897.53;5218440;28;20036;-69
2021/09/21 06:14:46;;;;;;;25.65;12.13;;;;;;;7.83;100.00;102888.13;5218354;28;20052;-69
2021/09/21 06:17:17;;;;;;;23.90;11.43;;;;;;;7.97;100.00;102898.81;5218525;28;20098;-69
2021/09/21 06:19:47;;;;;;;24.70;10.38;;;;;;;8.13;100.00;102894.16;5205505;28;20021;-69
2021/09/21 06:22:18;;;;;;;18.45;9.43;;;;;;;8.27;100.00;102895.94;5186477;28;20039;-70
2021/09/21 06:24:48;;;;;;;17.13;9.85;;;;;;;8.38;100.00;102897.94;5218548;28;20017;-69
2021/09/21 06:27:19;;;;;;;19.45;10.23;;;;;;;8.51;100.00;102897.03;5218725;28;20155;-69
2021/09/21 06:29:49;;;;;;;18.67;10.48;;;;;;;8.72;100.00;102909.91;5198041;28;20028;-70
2021/09/21 06:32:19;;;;;;;18.13;10.18;;;;;;;9.03;100.00;102909.53;5197681;28;20153;-70
2021/09/21 06:34:50;;;;;;;19.40;9.50;;;;;;;9.40;100.00;102912.31;5197692;28;20462;-70
2021/09/21 06:37:20;;;;;;;15.55;10.45;;;;;;;9.84;100.00;102901.09;5197924;28;20033;-70
2021/09/21 06:39:51;;;;;;;18.10;9.35;;;;;;;10.39;100.00;102906.91;5210570;28;20018;-70
2021/09/21 06:42:21;;;;;;;16.75;8.57;;;;;;;11.16;100.00;102915.34;5191254;28;20115;-70
2021/09/21 06:44:52;;;;;;;18.10;9.30;;;;;;;12.31;100.00;102916.88;5198810;28;20059;-70
2021/09/21 06:47:22;;;;;;;14.57;10.10;;;;;;;12.73;100.00;102930.41;5192652;28;20035;-70
2021/09/21 06:49:53;;;;;;;18.27;10.20;;;;;;;12.90;100.00;102924.41;5199678;28;20108;-70
2021/09/21 06:52:24;;;;;;;17.20;9.88;;;;;;;13.04;100.00;102934.03;5217866;28;20120;-69
2021/09/21 06:54:54;;;;;;;13.73;8.57;;;;;;;13.25;100.00;102936.75;5179717;28;20029;-70
2021/09/21 06:57:25;;;;;;;15.02;9.55;;;;;;;13.40;100.00;102938.97;5197755;28;20688;-70
2021/09/21 06:59:57;;;;;;;20.88;10.13;;;;;;;13.65;100.00;102943.03;5201024;28;20459;-70
2021/09/21 07:02:27;;;;;;;17.73;9.63;;;;;;;13.86;100.00;102942.16;5201512;28;20470;-70
2021/09/21 07:04:58;;;;;;;16.65;10.25;;;;;;;13.27;100.00;102953.66;5212442;28;20021;-70
2021/09/21 07:07:28;;;;;;;19.88;10.23;;;;;;;13.04;100.00;102953.75;5221812;28;20659;-70
2021/09/21 07:09:59;;;;;;;17.83;10.50;;;;;;;12.88;100.00;102964.13;5220923;28;20104;-71
2021/09/21 07:12:29;;;;;;;18.15;9.52;;;;;;;13.31;100.00;102958.66;5221836;28;20047;-70
2021/09/21 07:15:00;;;;;;;18.48;9.73;;;;;;;13.57;100.00;102950.97;5208345;28;20071;-71
2021/09/21 07:17:30;;;;;;;17.13;9.15;;;;;;;13.93;100.00;102956.78;5221480;28;20115;-70
2021/09/21 07:20:01;;;;;;;13.05;8.68;;;;;;;14.34;100.00;102963.00;5206563;28;20032;-71
2021/09/21 07:22:32;;;;;;;16.35;9.50;;;;;;;14.91;100.00;102973.03;5200826;28;20022;-70
2021/09/21 07:25:03;;;;;;;15.68;9.23;;;;;;;14.89;100.00;102968.75;5216608;28;20028;-71
2021/09/21 07:27:33;;;;;;;13.73;9.00;;;;;;;15.07;100.00;102974.28;5204318;28;20466;-70
2021/09/21 07:30:05;;;;;;;15.23;9.32;;;;;;;15.31;100.00;102971.94;5216504;28;20438;-71
2021/09/21 07:32:36;;;;;;;13.50;8.82;;;;;;;15.64;100.00;102980.59;5201455;28;20029;-70
2021/09/21 07:35:07;;;;;;;16.15;8.25;;;;;;;15.83;100.00;102983.22;5182697;28;20128;-71
2021/09/21 07:37:38;;;;;;;15.20;8.30;;;;;;;15.93;100.00;102981.31;5213929;28;20059;-71
2021/09/21 07:40:10;;;;;;;15.73;8.55;;;;;;;16.40;100.00;102978.47;5201035;28;20053;-71
2021/09/21 07:42:40;;;;;;;18.63;9.32;;;;;;;16.46;100.00;102974.28;5205718;28;20033;-71
2021/09/21 07:45:12;;;;;;;13.82;7.80;;;;;;;16.85;100.00;102977.59;5220780;28;20095;-71
2021/09/21 07:47:42;;;;;;;20.13;8.70;;;;;;;16.94;100.00;102979.38;5208140;28;20025;-70
2021/09/21 07:50:13;;;;;;;14.75;7.85;;;;;;;17.47;100.00;102983.84;5221040;28;20028;-71
2021/09/21 07:52:57;;;;;;;14.63;8.43;;;;;;;17.14;100.00;102985.47;5204866;28;20099;-71
2021/09/21 07:55:28;;;;;;;18.35;9.23;;;;;;;17.38;100.00;102992.09;5201023;28;20104;-71
2021/09/21 07:57:58;;;;;;;19.55;9.43;;;;;;;17.51;100.00;102982.47;5213683;28;20112;-71
2021/09/21 08:00:30;;;;;;;19.20;9.48;;;;;;;17.63;100.00;102980.38;5200409;28;20026;-71
2021/09/21 08:03:00;;;;;;;20.77;9.63;;;;;;;17.91;100.00;102981.03;5190858;28;20032;-71
2021/09/21 08:05:33;;;;;;;16.15;9.35;;;;;;;17.91;100.00;102989.19;5207395;28;20030;-71
2021/09/21 08:08:03;;;;;;;14.88;8.27;;;;;;;18.64;100.00;102991.28;5212654;28;20021;-71
2021/09/21 08:10:35;;;;;;;16.48;8.77;;;;;;;18.58;100.00;102991.97;5215410;28;20086;-71
2021/09/21 08:13:05;;;;;;;22.73;9.77;;;;;;;18.50;100.00;103005.50;5210984;28;20309;-71
2021/09/21 08:15:36;;;;;;;15.80;9.20;;;;;;;18.54;100.00;102996.88;5213416;28;20293;-71
2021/09/21 08:18:07;;;;;;;21.70;8.82;;;;;;;18.54;100.00;102994.16;5211810;28;20087;-71
2021/09/21 08:20:37;;;;;;;15.73;9.20;;;;;;;18.56;100.00;103000.25;5214040;28;20031;-71
2021/09/21 08:23:08;;;;;;;17.73;8.77;;;;;;;18.57;100.00;102998.38;5200390;28;20041;-71
2021/09/21 08:25:39;;;;;;;13.82;8.18;;;;;;;18.50;100.00;103005.50;5206750;28;20506;-71
2021/09/21 08:28:10;;;;;;;13.07;8.35;;;;;;;18.43;100.00;103018.09;5220391;28;20074;-71
2021/09/21 08:30:41;;;;;;;16.10;8.85;;;;;;;18.31;100.00;103006.66;5211220;28;20425;-71
2021/09/21 08:33:12;;;;;;;14.82;9.02;;;;;;;18.32;100.00;103017.38;5212970;28;20026;-71
2021/09/21 08:35:42;;;;;;;16.55;8.98;;;;;;;18.48;100.00;103018.44;5199778;28;20024;-71
2021/09/21 08:38:13;;;;;;;14.50;8.40;;;;;;;18.73;100.00;103017.50;5200521;28;20033;-71
2021/09/21 08:40:43;;;;;;;18.73;8.93;;;;;;;19.11;100.00;103018.69;5202192;28;20494;-71
2021/09/21 08:43:13;;;;;;;13.75;8.35;;;;;;;19.23;100.00;103024.66;5207302;28;20025;-71
2021/09/21 08:45:44;;;;;;;15.68;8.02;;;;;;;19.19;96.72;103027.91;5206651;28;20467;-71
2021/09/21 08:48:14;;;;;;;15.20;7.43;;;;;;;19.11;88.67;103034.16;5220217;28;20025;-71
2021/09/21 08:50:45;;;;;;;14.18;7.95;;;;;;;19.03;85.84;103023.31;5219345;28;20052;-72
2021/09/21 08:53:16;;;;;;;13.90;7.60;;;;;;;19.15;83.53;103030.09;5207911;28;20326;-71
2021/09/21 08:55:46;;;;;;;12.43;7.80;;;;;;;19.23;94.89;103029.22;5206874;28;20512;-72
2021/09/21 08:58:24;;;;;;;17.63;7.93;;;;;;;19.30;85.63;103036.56;5210383;28;20029;-72
2021/09/21 09:00:55;;;;;;;14.60;8.23;;;;;;;19.47;84.65;103033.81;5217521;28;20027;-72
2021/09/21 09:03:27;;;;;;;15.57;7.43;;;;;;;19.66;88.19;103034.31;5208429;28;20029;-72
2021/09/21 09:06:06;;;;;;;16.80;8.43;;;;;;;19.91;95.97;103037.81;5199226;28;20028;-72
2021/09/21 09:08:38;;;;;;;11.35;7.47;;;;;;;20.13;89.08;103038.06;5199886;28;20029;-72
2021/09/21 09:11:11;;;;;;;10.98;7.05;;;;;;;20.13;77.40;103044.41;5210929;28;20068;-72
2021/09/21 09:13:43;;;;;;;13.05;7.50;;;;;;;20.38;82.70;103039.69;5212505;28;20113;-72
2021/09/21 09:16:16;;;;;;;15.88;7.72;;;;;;;20.46;79.86;103030.59;5199344;28;20021;-72
2021/09/21 09:18:58;;;;;;;15.63;8.60;;;;;;;20.37;67.90;103031.66;5212551;28;20018;-72
2021/09/21 09:21:32;;;;;;;16.42;8.10;;;;;;;20.59;84.74;103032.78;5212327;28;20025;-72
2021/09/21 09:24:04;;;;;;;15.73;8.50;;;;;;;20.79;81.46;103035.91;5199315;28;20029;-72
2021/09/21 09:26:38;;;;;;;13.48;7.85;;;;;;;20.85;68.12;103029.72;5214685;28;20402;-71
2021/09/21 09:29:16;;;;;;;12.95;7.40;;;;;;;21.02;73.55;103024.97;5219111;28;20021;-72
2021/09/21 09:31:47;;;;;;;15.77;7.47;;;;;;;20.94;68.81;103032.19;5196343;28;20430;-72
2021/09/21 09:34:24;;;;;;;14.93;7.75;;;;;;;20.88;63.33;103029.34;5199077;28;20029;-72
2021/09/21 09:36:58;;;;;;;12.38;7.18;;;;;;;20.90;68.30;103036.31;5198832;28;20029;-72
2021/09/21 09:39:30;;;;;;;12.98;8.13;;;;;;;20.98;64.29;103038.13;5213725;28;20111;-71
2021/09/21 09:42:03;;;;;;;10.63;7.53;;;;;;;20.94;66.11;103026.75;5213531;28;20017;-72
2021/09/21 09:44:33;;;;;;;15.77;8.13;;;;;;;21.04;64.67;103033.84;5206125;28;20535;-72
2021/09/21 09:47:06;;;;;;;11.02;7.30;;;;;;;20.93;59.70;103032.34;5219361;28;20105;-71
2021/09/21 09:49:41;;;;;;;11.32;6.40;;;;;;;20.98;62.76;103027.19;5188446;28;20069;-72
2021/09/21 09:52:15;;;;;;;14.95;7.97;;;;;;;21.14;62.22;103034.44;5219155;28;20371;-72
2021/09/21 09:54:47;;;;;;;14.43;7.40;;;;;;;20.77;62.00;103037.94;5205194;28;20462;-72
2021/09/21 09:57:17;;;;;;;10.02;6.85;;;;;;;21.06;59.40;103035.34;5217754;28;20017;-72
2021/09/21 09:59:49;;;;;;;12.65;7.38;;;;;;;20.79;63.58;103038.63;5180792;28;20033;-72
2021/09/21 10:02:20;;;;;;;12.85;7.68;;;;;;;20.48;63.12;103036.75;5211524;28;20076;-72
2021/09/21 10:04:51;;;;;;;12.05;6.93;;;;;;;20.47;61.35;103040.50;5208560;28;20039;-72
2021/09/21 10:07:21;;;;;;;11.10;7.25;;;;;;;20.32;62.75;103031.34;5200925;28;20033;-72
2021/09/21 10:09:53;;;;;;;11.73;7.13;;;;;;;20.47;61.08;103036.94;5179869;28;20052;-72
2021/09/21 10:12:24;;;;;;;13.05;6.80;;;;;;;20.20;60.30;103030.91;5217742;28;20051;-72
2021/09/21 10:14:55;;;;;;;11.85;7.22;;;;;;;20.21;63.63;103029.88;5219384;28;20065;-72
2021/09/21 10:17:26;;;;;;;10.48;7.32;;;;;;;20.08;61.81;103037.75;5198556;28;20048;-72
2021/09/21 10:19:56;;;;;;;13.52;7.45;;;;;;;20.07;59.52;103039.63;5198536;28;20041;-72
2021/09/21 10:22:29;;;;;;;14.55;7.80;;;;;;;20.10;61.12;103044.75;5197725;28;20096;-72
2021/09/21 10:25:05;;;;;;;11.88;7.43;;;;;;;20.16;60.68;103037.75;5197871;28;20613;-72
2021/09/21 10:27:38;;;;;;;13.13;8.30;;;;;;;19.84;59.18;103033.25;5198056;28;20150;-72
2021/09/21 10:30:10;;;;;;;13.50;7.13;;;;;;;19.88;60.80;103027.28;5215773;28;20029;-72
2021/09/21 10:32:46;;;;;;;12.07;6.50;;;;;;;20.13;66.05;103040.81;5201621;28;20041;-71
2021/09/21 10:35:21;;;;;;;10.88;6.10;;;;;;;20.00;57.12;103044.09;5202567;28;20065;-72
2021/09/21 10:38:04;;;;;;;9.23;6.32;;;;;;;19.96;58.24;103039.19;5201786;28;20026;-72
2021/09/21 10:40:39;;;;;;;11.20;6.43;;;;;;;20.00;57.19;103040.53;5202655;28;20083;-72
2021/09/21 10:43:23;;;;;;;9.55;5.90;;;;;;;20.25;56.74;103035.84;5217342;28;20037;-72
2021/09/21 10:46:09;;;;;;;10.93;7.22;;;;;;;20.16;59.97;103032.28;5222603;28;20059;-72
2021/09/21 10:48:44;;;;;;;15.50;6.50;;;;;;;20.20;60.33;103035.50;5221998;28;20031;-72
2021/09/21 10:51:15;;;;;;;12.57;6.47;;;;;;;20.24;61.72;103037.72;5208966;28;20029;-72
2021/09/21 10:53:45;;;;;;;11.02;6.25;;;;;;;20.47;61.43;103043.22;5222561;28;20241;-73
2021/09/21 10:56:16;;;;;;;12.57;6.45;;;;;;;20.42;55.18;103031.97;5222695;28;20443;-72
2021/09/21 10:58:55;;;;;;;10.13;6.65;;;;;;;20.16;59.14;103029.56;5208874;28;20032;-72
2021/09/21 11:01:26;;;;;;;9.20;6.65;;;;;;;20.16;62.71;103030.41;5221850;28;20025;-72
2021/09/21 11:03:56;;;;;;;10.35;5.78;;;;;;;20.46;64.03;103021.59;5222587;28;20078;-72
2021/09/21 11:06:28;;;;;;;10.65;6.15;;;;;;;20.67;58.19;103024.53;5223152;28;20024;-72
2021/09/21 11:08:58;;;;;;;13.68;6.90;;;;;;;20.68;60.29;103028.97;5218575;28;20159;-72
2021/09/21 11:11:34;;;;;;;11.35;6.25;;;;;;;20.61;59.27;103019.81;5214332;28;20024;-72
2021/09/21 11:14:04;;;;;;;;;;;;;;;21.21;50.20;103016.28;5217459;28;20031;-72
2021/09/21 11:16:35;;;;;;;9.73;5.65;;;;;;;20.92;51.28;103015.16;5214922;28;19913;-71
2021/09/21 11:19:06;;;;;;;8.93;6.00;;;;;;;20.57;54.96;103018.47;5214864;28;20475;-72
2021/09/21 11:21:37;;;;;;;10.75;6.05;;;;;;;20.41;58.59;103019.38;5202001;28;20112;-72
2021/09/21 11:24:07;;;;;;;9.30;6.57;;;;;;;20.40;59.16;103014.97;5213165;28;20492;-72
2021/09/21 11:26:41;;;;;;;12.48;7.05;;;;;;;20.43;59.66;103020.03;5202333;28;20017;-72
2021/09/21 11:29:15;;;;;;;12.10;6.70;;;;;;;20.39;54.90;103026.91;5201725;28;20495;-72
2021/09/21 11:31:48;;;;;;;14.27;6.17;;;;;;;20.45;56.83;103015.28;5214970;28;20045;-72
2021/09/21 11:34:19;;;;;;;9.20;5.50;;;;;;;20.88;55.36;103024.75;5201580;28;20083;-71
2021/09/21 11:36:50;;;;;;;11.02;6.82;;;;;;;20.88;58.86;103018.41;5207801;28;20033;-72
2021/09/21 11:39:20;;;;;;;10.90;7.13;;;;;;;21.02;53.70;103027.69;5208368;28;20029;-72
2021/09/21 11:41:52;;;;;;;20.42;6.55;;;;;;;20.72;54.59;103022.13;5208064;28;20024;-72
2021/09/21 11:44:23;;;;;;;10.48;6.20;;;;;;;20.18;52.92;103025.66;5205624;28;20033;-72